sensor_id;sensor_type;location;lat;lon;timestamp;P1;durP1;ratioP1;P2;durP2;ratioP2
3779;SDS011;1905;52.482;9.802;2024-03-22T00:01:15;17.80;;;8.00;;
3779;SDS011;1905;52.482;9.802;2024-03-22T00:03:41;16.63;;;8.60;;
3779;SDS011;1905;52.482;9.802;2024-03-22T00:06:08;21.87;;;9.07;;
3779;SDS011;1905;52.482;9.802;2024-03-22T00:08:35;18.37;;;8.37;;
3779;SDS011;1905;52.482;9.802;2024-03-22T00:11:01;14.73;;;7.50;;
3779;SDS011;1905;52.482;9.802;2024-03-22T00:13:28;17.23;;;9.30;;
3779;SDS011;1905;52.482;9.802;2024-03-22T00:15:55;15.83;;;8.90;;
3779;SDS011;1905;52.482;9.802;2024-03-22T00:18:21;16.70;;;8.60;;
3779;SDS011;1905;52.482;9.802;2024-03-22T00:20:47;23.13;;;10.60;;
3779;SDS011;1905;52.482;9.802;2024-03-22T00:23:15;19.63;;;9.47;;
3779;SDS011;1905;52.482;9.802;2024-03-22T00:25:40;20.63;;;9.30;;
3779;SDS011;1905;52.482;9.802;2024-03-22T00:28:07;20.57;;;9.63;;
3779;SDS011;1905;52.482;9.802;2024-03-22T00:30:34;19.20;;;9.97;;
3779;SDS011;1905;52.482;9.802;2024-03-22T00:33:00;20.43;;;9.93;;
3779;SDS011;1905;52.482;9.802;2024-03-22T00:35:26;21.63;;;10.40;;
3779;SDS011;1905;52.482;9.802;2024-03-22T00:37:53;31.00;;;11.50;;
3779;SDS011;1905;52.482;9.802;2024-03-22T00:40:19;27.53;;;12.97;;
3779;SDS011;1905;52.482;9.802;2024-03-22T00:42:46;23.57;;;11.37;;
3779;SDS011;1905;52.482;9.802;2024-03-22T00:45:12;24.87;;;12.33;;
3779;SDS011;1905;52.482;9.802;2024-03-22T00:47:39;24.87;;;11.77;;
3779;SDS011;1905;52.482;9.802;2024-03-22T00:50:05;27.00;;;12.40;;
3779;SDS011;1905;52.482;9.802;2024-03-22T00:52:33;20.53;;;10.33;;
3779;SDS011;1905;52.482;9.802;2024-03-22T00:54:59;25.70;;;12.60;;
3779;SDS011;1905;52.482;9.802;2024-03-22T00:57:26;26.23;;;13.27;;
3779;SDS011;1905;52.482;9.802;2024-03-22T00:59:51;26.87;;;13.17;;
3779;SDS011;1905;52.482;9.802;2024-03-22T01:02:18;27.30;;;12.73;;
3779;SDS011;1905;52.482;9.802;2024-03-22T01:04:44;25.13;;;14.50;;
3779;SDS011;1905;52.482;9.802;2024-03-22T01:07:11;32.67;;;14.23;;
3779;SDS011;1905;52.482;9.802;2024-03-22T01:09:37;26.87;;;14.37;;
3779;SDS011;1905;52.482;9.802;2024-03-22T01:12:04;28.50;;;14.93;;
3779;SDS011;1905;52.482;9.802;2024-03-22T01:14:31;28.20;;;15.17;;
3779;SDS011;1905;52.482;9.802;2024-03-22T01:16:58;26.83;;;14.63;;
3779;SDS011;1905;52.482;9.802;2024-03-22T01:19:24;32.13;;;15.03;;
3779;SDS011;1905;52.482;9.802;2024-03-22T01:21:51;30.43;;;15.57;;
3779;SDS011;1905;52.482;9.802;2024-03-22T01:24:17;33.00;;;15.50;;
3779;SDS011;1905;52.482;9.802;2024-03-22T01:26:44;30.77;;;14.93;;
3779;SDS011;1905;52.482;9.802;2024-03-22T01:29:10;29.90;;;16.40;;
3779;SDS011;1905;52.482;9.802;2024-03-22T01:31:36;33.53;;;16.53;;
3779;SDS011;1905;52.482;9.802;2024-03-22T01:34:02;32.40;;;15.87;;
3779;SDS011;1905;52.482;9.802;2024-03-22T01:36:33;34.83;;;16.30;;
3779;SDS011;1905;52.482;9.802;2024-03-22T01:39:00;30.00;;;16.63;;
3779;SDS011;1905;52.482;9.802;2024-03-22T01:41:26;37.20;;;16.87;;
3779;SDS011;1905;52.482;9.802;2024-03-22T01:43:53;33.43;;;16.67;;
3779;SDS011;1905;52.482;9.802;2024-03-22T01:46:20;34.50;;;15.70;;
3779;SDS011;1905;52.482;9.802;2024-03-22T01:48:46;40.10;;;15.17;;
3779;SDS011;1905;52.482;9.802;2024-03-22T01:51:13;33.60;;;15.43;;
3779;SDS011;1905;52.482;9.802;2024-03-22T01:53:39;39.43;;;17.37;;
3779;SDS011;1905;52.482;9.802;2024-03-22T01:56:06;33.67;;;17.60;;
3779;SDS011;1905;52.482;9.802;2024-03-22T01:58:33;45.33;;;18.53;;
3779;SDS011;1905;52.482;9.802;2024-03-22T02:01:00;35.67;;;17.57;;
3779;SDS011;1905;52.482;9.802;2024-03-22T02:03:27;40.67;;;18.87;;
3779;SDS011;1905;52.482;9.802;2024-03-22T02:18:12;38.20;;;15.93;;
3779;SDS011;1905;52.482;9.802;2024-03-22T02:20:39;36.23;;;15.93;;
3779;SDS011;1905;52.482;9.802;2024-03-22T02:23:05;36.63;;;17.73;;
3779;SDS011;1905;52.482;9.802;2024-03-22T02:25:32;38.83;;;16.30;;
3779;SDS011;1905;52.482;9.802;2024-03-22T02:27:58;34.80;;;16.87;;
3779;SDS011;1905;52.482;9.802;2024-03-22T02:30:25;34.27;;;17.30;;
3779;SDS011;1905;52.482;9.802;2024-03-22T02:32:51;31.47;;;16.80;;
3779;SDS011;1905;52.482;9.802;2024-03-22T02:35:18;43.73;;;17.50;;
3779;SDS011;1905;52.482;9.802;2024-03-22T02:37:44;35.20;;;17.87;;
3779;SDS011;1905;52.482;9.802;2024-03-22T02:40:11;37.10;;;18.27;;
3779;SDS011;1905;52.482;9.802;2024-03-22T02:42:37;36.50;;;16.90;;
3779;SDS011;1905;52.482;9.802;2024-03-22T02:45:04;38.83;;;19.13;;
3779;SDS011;1905;52.482;9.802;2024-03-22T02:47:31;38.20;;;19.13;;
3779;SDS011;1905;52.482;9.802;2024-03-22T02:49:58;36.77;;;17.77;;
3779;SDS011;1905;52.482;9.802;2024-03-22T02:52:24;41.67;;;19.50;;
3779;SDS011;1905;52.482;9.802;2024-03-22T02:54:51;40.30;;;19.37;;
3779;SDS011;1905;52.482;9.802;2024-03-22T02:57:17;40.30;;;18.40;;
3779;SDS011;1905;52.482;9.802;2024-03-22T02:59:45;41.60;;;17.90;;
3779;SDS011;1905;52.482;9.802;2024-03-22T03:02:10;42.90;;;20.03;;
3779;SDS011;1905;52.482;9.802;2024-03-22T03:04:37;37.90;;;17.87;;
3779;SDS011;1905;52.482;9.802;2024-03-22T03:07:03;37.27;;;18.63;;
3779;SDS011;1905;52.482;9.802;2024-03-22T03:09:31;43.07;;;20.30;;
3779;SDS011;1905;52.482;9.802;2024-03-22T03:11:56;40.40;;;19.10;;
3779;SDS011;1905;52.482;9.802;2024-03-22T03:14:24;37.20;;;16.90;;
3779;SDS011;1905;52.482;9.802;2024-03-22T03:16:49;47.73;;;21.03;;
3779;SDS011;1905;52.482;9.802;2024-03-22T03:19:16;41.80;;;18.67;;
3779;SDS011;1905;52.482;9.802;2024-03-22T03:21:42;45.47;;;19.87;;
3779;SDS011;1905;52.482;9.802;2024-03-22T03:24:09;46.07;;;19.80;;
3779;SDS011;1905;52.482;9.802;2024-03-22T03:26:35;44.67;;;19.53;;
3779;SDS011;1905;52.482;9.802;2024-03-22T03:29:02;39.20;;;18.10;;
3779;SDS011;1905;52.482;9.802;2024-03-22T03:31:28;39.80;;;19.17;;
3779;SDS011;1905;52.482;9.802;2024-03-22T03:33:55;40.03;;;18.67;;
3779;SDS011;1905;52.482;9.802;2024-03-22T03:36:21;38.67;;;18.73;;
3779;SDS011;1905;52.482;9.802;2024-03-22T03:38:48;40.40;;;18.30;;
3779;SDS011;1905;52.482;9.802;2024-03-22T03:41:14;47.57;;;20.70;;
3779;SDS011;1905;52.482;9.802;2024-03-22T03:43:41;40.90;;;17.70;;
3779;SDS011;1905;52.482;9.802;2024-03-22T03:46:07;46.10;;;19.77;;
3779;SDS011;1905;52.482;9.802;2024-03-22T03:48:34;45.57;;;19.70;;
3779;SDS011;1905;52.482;9.802;2024-03-22T03:50:59;42.17;;;19.20;;
3779;SDS011;1905;52.482;9.802;2024-03-22T03:53:29;42.77;;;18.17;;
3779;SDS011;1905;52.482;9.802;2024-03-22T03:55:55;40.03;;;21.30;;
3779;SDS011;1905;52.482;9.802;2024-03-22T03:58:22;36.90;;;17.87;;
3779;SDS011;1905;52.482;9.802;2024-03-22T04:00:48;42.47;;;18.97;;
3779;SDS011;1905;52.482;9.802;2024-03-22T04:03:15;41.93;;;18.30;;
3779;SDS011;1905;52.482;9.802;2024-03-22T04:05:41;41.07;;;18.67;;
3779;SDS011;1905;52.482;9.802;2024-03-22T04:08:08;46.60;;;20.07;;
3779;SDS011;1905;52.482;9.802;2024-03-22T04:10:33;42.17;;;20.80;;
3779;SDS011;1905;52.482;9.802;2024-03-22T04:13:00;36.90;;;20.43;;
3779;SDS011;1905;52.482;9.802;2024-03-22T04:15:27;39.43;;;19.57;;
3779;SDS011;1905;52.482;9.802;2024-03-22T04:17:55;46.00;;;20.07;;
3779;SDS011;1905;52.482;9.802;2024-03-22T04:20:22;36.87;;;19.57;;
3779;SDS011;1905;52.482;9.802;2024-03-22T04:22:49;44.47;;;20.97;;
3779;SDS011;1905;52.482;9.802;2024-03-22T04:25:17;42.83;;;20.90;;
3779;SDS011;1905;52.482;9.802;2024-03-22T04:27:45;52.27;;;20.77;;
3779;SDS011;1905;52.482;9.802;2024-03-22T04:30:11;42.83;;;20.27;;
3779;SDS011;1905;52.482;9.802;2024-03-22T04:32:38;39.70;;;20.53;;
3779;SDS011;1905;52.482;9.802;2024-03-22T04:35:04;47.90;;;21.07;;
3779;SDS011;1905;52.482;9.802;2024-03-22T04:37:31;56.90;;;22.70;;
3779;SDS011;1905;52.482;9.802;2024-03-22T04:39:58;50.27;;;20.90;;
3779;SDS011;1905;52.482;9.802;2024-03-22T04:42:25;52.57;;;22.93;;
3779;SDS011;1905;52.482;9.802;2024-03-22T04:44:52;45.10;;;22.00;;
3779;SDS011;1905;52.482;9.802;2024-03-22T04:47:18;48.00;;;21.93;;
3779;SDS011;1905;52.482;9.802;2024-03-22T04:49:45;51.33;;;22.00;;
3779;SDS011;1905;52.482;9.802;2024-03-22T04:52:11;45.83;;;23.73;;
3779;SDS011;1905;52.482;9.802;2024-03-22T04:54:38;53.17;;;24.23;;
3779;SDS011;1905;52.482;9.802;2024-03-22T04:57:03;48.27;;;21.83;;
3779;SDS011;1905;52.482;9.802;2024-03-22T04:59:30;50.77;;;20.87;;
3779;SDS011;1905;52.482;9.802;2024-03-22T05:01:56;54.77;;;23.43;;
3779;SDS011;1905;52.482;9.802;2024-03-22T05:04:23;58.87;;;23.30;;
3779;SDS011;1905;52.482;9.802;2024-03-22T05:06:49;53.80;;;25.83;;
3779;SDS011;1905;52.482;9.802;2024-03-22T05:09:17;47.37;;;21.83;;
3779;SDS011;1905;52.482;9.802;2024-03-22T05:11:42;45.40;;;21.37;;
3779;SDS011;1905;52.482;9.802;2024-03-22T05:14:12;56.03;;;22.90;;
3779;SDS011;1905;52.482;9.802;2024-03-22T05:16:38;52.23;;;22.20;;
3779;SDS011;1905;52.482;9.802;2024-03-22T05:19:05;51.53;;;20.93;;
3779;SDS011;1905;52.482;9.802;2024-03-22T05:21:32;46.90;;;20.03;;
3779;SDS011;1905;52.482;9.802;2024-03-22T05:23:59;48.20;;;22.07;;
3779;SDS011;1905;52.482;9.802;2024-03-22T05:26:25;52.20;;;20.93;;
3779;SDS011;1905;52.482;9.802;2024-03-22T05:28:52;48.13;;;22.60;;
3779;SDS011;1905;52.482;9.802;2024-03-22T05:31:18;44.23;;;22.47;;
3779;SDS011;1905;52.482;9.802;2024-03-22T05:33:46;60.30;;;22.50;;
3779;SDS011;1905;52.482;9.802;2024-03-22T05:36:12;50.53;;;23.27;;
3779;SDS011;1905;52.482;9.802;2024-03-22T05:38:39;49.37;;;22.50;;
3779;SDS011;1905;52.482;9.802;2024-03-22T05:41:05;62.70;;;24.53;;
3779;SDS011;1905;52.482;9.802;2024-03-22T05:43:32;53.30;;;21.60;;
3779;SDS011;1905;52.482;9.802;2024-03-22T05:45:58;47.30;;;20.60;;
3779;SDS011;1905;52.482;9.802;2024-03-22T05:48:25;55.23;;;21.40;;
3779;SDS011;1905;52.482;9.802;2024-03-22T05:50:51;48.00;;;21.27;;
3779;SDS011;1905;52.482;9.802;2024-03-22T05:53:19;45.00;;;21.87;;
3779;SDS011;1905;52.482;9.802;2024-03-22T05:55:45;43.50;;;20.63;;
3779;SDS011;1905;52.482;9.802;2024-03-22T05:58:12;50.97;;;20.63;;
3779;SDS011;1905;52.482;9.802;2024-03-22T06:00:38;46.90;;;21.70;;
3779;SDS011;1905;52.482;9.802;2024-03-22T06:03:05;57.27;;;22.03;;
3779;SDS011;1905;52.482;9.802;2024-03-22T06:05:33;49.07;;;21.83;;
3779;SDS011;1905;52.482;9.802;2024-03-22T06:08:00;45.33;;;21.57;;
3779;SDS011;1905;52.482;9.802;2024-03-22T06:10:26;54.77;;;25.63;;
3779;SDS011;1905;52.482;9.802;2024-03-22T06:12:53;57.90;;;23.67;;
3779;SDS011;1905;52.482;9.802;2024-03-22T06:15:20;58.67;;;24.07;;
3779;SDS011;1905;52.482;9.802;2024-03-22T06:17:47;63.60;;;25.23;;
3779;SDS011;1905;52.482;9.802;2024-03-22T06:20:13;54.13;;;22.20;;
3779;SDS011;1905;52.482;9.802;2024-03-22T06:22:40;48.87;;;21.30;;
3779;SDS011;1905;52.482;9.802;2024-03-22T06:25:07;49.70;;;19.67;;
3779;SDS011;1905;52.482;9.802;2024-03-22T06:27:34;60.60;;;23.43;;
3779;SDS011;1905;52.482;9.802;2024-03-22T06:30:00;59.50;;;25.60;;
3779;SDS011;1905;52.482;9.802;2024-03-22T06:32:28;49.60;;;23.67;;
3779;SDS011;1905;52.482;9.802;2024-03-22T06:34:54;50.77;;;25.00;;
3779;SDS011;1905;52.482;9.802;2024-03-22T06:37:22;51.40;;;22.43;;
3779;SDS011;1905;52.482;9.802;2024-03-22T06:39:51;46.07;;;21.60;;
3779;SDS011;1905;52.482;9.802;2024-03-22T06:42:20;53.07;;;25.37;;
3779;SDS011;1905;52.482;9.802;2024-03-22T06:44:46;67.23;;;30.87;;
3779;SDS011;1905;52.482;9.802;2024-03-22T06:47:13;67.77;;;33.70;;
3779;SDS011;1905;52.482;9.802;2024-03-22T06:49:39;79.47;;;37.17;;
3779;SDS011;1905;52.482;9.802;2024-03-22T06:52:06;49.10;;;21.37;;
3779;SDS011;1905;52.482;9.802;2024-03-22T06:54:33;55.13;;;23.17;;
3779;SDS011;1905;52.482;9.802;2024-03-22T06:57:00;53.60;;;22.80;;
3779;SDS011;1905;52.482;9.802;2024-03-22T06:59:26;52.30;;;25.33;;
3779;SDS011;1905;52.482;9.802;2024-03-22T07:01:54;42.00;;;19.23;;
3779;SDS011;1905;52.482;9.802;2024-03-22T07:04:22;40.30;;;19.47;;
3779;SDS011;1905;52.482;9.802;2024-03-22T07:06:49;39.63;;;18.37;;
3779;SDS011;1905;52.482;9.802;2024-03-22T07:09:15;39.53;;;17.93;;
3779;SDS011;1905;52.482;9.802;2024-03-22T07:11:43;37.17;;;18.43;;
3779;SDS011;1905;52.482;9.802;2024-03-22T07:14:09;40.43;;;20.13;;
3779;SDS011;1905;52.482;9.802;2024-03-22T07:16:36;42.17;;;18.57;;
3779;SDS011;1905;52.482;9.802;2024-03-22T07:19:03;38.13;;;20.47;;
3779;SDS011;1905;52.482;9.802;2024-03-22T07:21:31;31.47;;;14.97;;
3779;SDS011;1905;52.482;9.802;2024-03-22T07:23:57;37.17;;;16.40;;
3779;SDS011;1905;52.482;9.802;2024-03-22T07:26:24;42.40;;;17.77;;
3779;SDS011;1905;52.482;9.802;2024-03-22T07:28:51;51.17;;;27.40;;
3779;SDS011;1905;52.482;9.802;2024-03-22T07:31:18;41.60;;;22.77;;
3779;SDS011;1905;52.482;9.802;2024-03-22T07:33:45;45.47;;;17.73;;
3779;SDS011;1905;52.482;9.802;2024-03-22T07:36:12;34.57;;;15.77;;
3779;SDS011;1905;52.482;9.802;2024-03-22T07:38:38;45.33;;;17.83;;
3779;SDS011;1905;52.482;9.802;2024-03-22T07:41:05;48.43;;;25.53;;
3779;SDS011;1905;52.482;9.802;2024-03-22T07:43:31;40.90;;;20.80;;
3779;SDS011;1905;52.482;9.802;2024-03-22T07:46:01;36.73;;;16.53;;
3779;SDS011;1905;52.482;9.802;2024-03-22T07:48:27;40.03;;;21.00;;
3779;SDS011;1905;52.482;9.802;2024-03-22T07:50:57;40.73;;;21.90;;
3779;SDS011;1905;52.482;9.802;2024-03-22T07:53:24;34.13;;;16.40;;
3779;SDS011;1905;52.482;9.802;2024-03-22T07:55:51;38.93;;;18.60;;
3779;SDS011;1905;52.482;9.802;2024-03-22T07:58:18;36.50;;;16.93;;
3779;SDS011;1905;52.482;9.802;2024-03-22T08:00:47;39.00;;;19.83;;
3779;SDS011;1905;52.482;9.802;2024-03-22T08:03:15;33.10;;;17.63;;
3779;SDS011;1905;52.482;9.802;2024-03-22T08:05:43;37.77;;;17.33;;
3779;SDS011;1905;52.482;9.802;2024-03-22T08:08:09;34.43;;;16.17;;
3779;SDS011;1905;52.482;9.802;2024-03-22T08:10:36;38.13;;;15.63;;
3779;SDS011;1905;52.482;9.802;2024-03-22T08:13:03;34.00;;;16.07;;
3779;SDS011;1905;52.482;9.802;2024-03-22T08:15:30;40.50;;;16.70;;
3779;SDS011;1905;52.482;9.802;2024-03-22T08:17:56;42.23;;;17.70;;
3779;SDS011;1905;52.482;9.802;2024-03-22T08:20:24;26.43;;;13.40;;
3779;SDS011;1905;52.482;9.802;2024-03-22T08:22:50;30.07;;;14.67;;
3779;SDS011;1905;52.482;9.802;2024-03-22T08:25:18;31.73;;;15.00;;
3779;SDS011;1905;52.482;9.802;2024-03-22T08:27:46;37.30;;;14.57;;
3779;SDS011;1905;52.482;9.802;2024-03-22T08:30:13;32.60;;;15.47;;
3779;SDS011;1905;52.482;9.802;2024-03-22T08:32:40;30.27;;;14.23;;
3779;SDS011;1905;52.482;9.802;2024-03-22T08:35:07;30.03;;;14.67;;
3779;SDS011;1905;52.482;9.802;2024-03-22T08:37:33;32.00;;;14.53;;
3779;SDS011;1905;52.482;9.802;2024-03-22T08:40:00;32.73;;;15.67;;
3779;SDS011;1905;52.482;9.802;2024-03-22T08:42:26;37.30;;;14.67;;
3779;SDS011;1905;52.482;9.802;2024-03-22T08:44:54;30.57;;;15.20;;
3779;SDS011;1905;52.482;9.802;2024-03-22T08:47:20;34.07;;;16.27;;
3779;SDS011;1905;52.482;9.802;2024-03-22T08:49:48;36.47;;;15.87;;
3779;SDS011;1905;52.482;9.802;2024-03-22T08:52:15;34.93;;;15.67;;
3779;SDS011;1905;52.482;9.802;2024-03-22T08:54:42;36.87;;;17.50;;
3779;SDS011;1905;52.482;9.802;2024-03-22T08:57:08;32.70;;;15.63;;
3779;SDS011;1905;52.482;9.802;2024-03-22T08:59:36;35.93;;;15.17;;
3779;SDS011;1905;52.482;9.802;2024-03-22T09:02:03;37.40;;;15.33;;
3779;SDS011;1905;52.482;9.802;2024-03-22T09:04:31;35.73;;;14.50;;
3779;SDS011;1905;52.482;9.802;2024-03-22T09:06:57;35.17;;;15.20;;
3779;SDS011;1905;52.482;9.802;2024-03-22T09:09:24;39.80;;;15.87;;
3779;SDS011;1905;52.482;9.802;2024-03-22T09:11:52;37.80;;;15.30;;
3779;SDS011;1905;52.482;9.802;2024-03-22T09:14:21;36.00;;;18.77;;
3779;SDS011;1905;52.482;9.802;2024-03-22T09:16:47;32.50;;;17.10;;
3779;SDS011;1905;52.482;9.802;2024-03-22T09:19:15;31.73;;;16.10;;
3779;SDS011;1905;52.482;9.802;2024-03-22T09:21:45;37.37;;;17.00;;
3779;SDS011;1905;52.482;9.802;2024-03-22T09:24:12;39.30;;;18.00;;
3779;SDS011;1905;52.482;9.802;2024-03-22T09:26:38;31.77;;;15.83;;
3779;SDS011;1905;52.482;9.802;2024-03-22T09:29:05;36.93;;;18.20;;
3779;SDS011;1905;52.482;9.802;2024-03-22T09:31:31;35.17;;;15.20;;
3779;SDS011;1905;52.482;9.802;2024-03-22T09:33:59;31.83;;;14.80;;
3779;SDS011;1905;52.482;9.802;2024-03-22T09:36:25;35.73;;;17.30;;
3779;SDS011;1905;52.482;9.802;2024-03-22T09:38:52;30.80;;;16.50;;
3779;SDS011;1905;52.482;9.802;2024-03-22T09:41:23;31.77;;;15.73;;
3779;SDS011;1905;52.482;9.802;2024-03-22T09:43:52;37.47;;;16.73;;
3779;SDS011;1905;52.482;9.802;2024-03-22T09:46:21;35.63;;;16.00;;
3779;SDS011;1905;52.482;9.802;2024-03-22T09:48:48;26.10;;;15.27;;
3779;SDS011;1905;52.482;9.802;2024-03-22T09:51:16;32.83;;;15.00;;
3779;SDS011;1905;52.482;9.802;2024-03-22T09:53:44;31.90;;;16.10;;
3779;SDS011;1905;52.482;9.802;2024-03-22T09:56:13;27.20;;;16.33;;
3779;SDS011;1905;52.482;9.802;2024-03-22T09:58:41;31.00;;;16.60;;
3779;SDS011;1905;52.482;9.802;2024-03-22T10:01:11;30.63;;;16.70;;
3779;SDS011;1905;52.482;9.802;2024-03-22T10:03:39;31.83;;;15.83;;
3779;SDS011;1905;52.482;9.802;2024-03-22T10:06:06;32.97;;;15.43;;
3779;SDS011;1905;52.482;9.802;2024-03-22T10:08:33;33.40;;;17.40;;
3779;SDS011;1905;52.482;9.802;2024-03-22T10:11:02;31.40;;;16.40;;
3779;SDS011;1905;52.482;9.802;2024-03-22T10:13:30;33.47;;;15.87;;
3779;SDS011;1905;52.482;9.802;2024-03-22T10:15:56;27.97;;;15.77;;
3779;SDS011;1905;52.482;9.802;2024-03-22T10:18:23;32.60;;;14.63;;
3779;SDS011;1905;52.482;9.802;2024-03-22T10:21:01;33.67;;;15.80;;
3779;SDS011;1905;52.482;9.802;2024-03-22T10:23:32;29.70;;;14.03;;
3779;SDS011;1905;52.482;9.802;2024-03-22T10:25:59;32.03;;;14.53;;
3779;SDS011;1905;52.482;9.802;2024-03-22T10:28:27;32.47;;;16.70;;
3779;SDS011;1905;52.482;9.802;2024-03-22T10:30:58;31.77;;;15.60;;
3779;SDS011;1905;52.482;9.802;2024-03-22T10:33:36;29.00;;;16.03;;
3779;SDS011;1905;52.482;9.802;2024-03-22T10:36:10;39.07;;;17.90;;
3779;SDS011;1905;52.482;9.802;2024-03-22T10:38:42;34.07;;;16.00;;
3779;SDS011;1905;52.482;9.802;2024-03-22T10:41:13;31.73;;;17.23;;
3779;SDS011;1905;52.482;9.802;2024-03-22T10:43:41;39.37;;;17.00;;
3779;SDS011;1905;52.482;9.802;2024-03-22T10:46:07;38.73;;;19.70;;
3779;SDS011;1905;52.482;9.802;2024-03-22T10:48:36;31.87;;;18.77;;
3779;SDS011;1905;52.482;9.802;2024-03-22T10:51:05;33.57;;;16.77;;
3779;SDS011;1905;52.482;9.802;2024-03-22T10:53:33;36.87;;;18.63;;
3779;SDS011;1905;52.482;9.802;2024-03-22T10:56:01;35.23;;;17.50;;
3779;SDS011;1905;52.482;9.802;2024-03-22T10:58:31;40.30;;;19.40;;
3779;SDS011;1905;52.482;9.802;2024-03-22T11:00:58;38.20;;;17.70;;
3779;SDS011;1905;52.482;9.802;2024-03-22T11:03:26;36.33;;;19.43;;
3779;SDS011;1905;52.482;9.802;2024-03-22T11:05:57;35.70;;;17.50;;
3779;SDS011;1905;52.482;9.802;2024-03-22T11:08:25;41.30;;;20.97;;
3779;SDS011;1905;52.482;9.802;2024-03-22T11:10:53;38.80;;;20.20;;
3779;SDS011;1905;52.482;9.802;2024-03-22T11:13:20;34.30;;;18.03;;
3779;SDS011;1905;52.482;9.802;2024-03-22T11:15:47;33.03;;;17.97;;
3779;SDS011;1905;52.482;9.802;2024-03-22T11:18:15;37.87;;;18.00;;
3779;SDS011;1905;52.482;9.802;2024-03-22T11:20:41;36.60;;;16.33;;
3779;SDS011;1905;52.482;9.802;2024-03-22T11:23:11;35.10;;;18.70;;
3779;SDS011;1905;52.482;9.802;2024-03-22T11:25:38;34.13;;;18.67;;
3779;SDS011;1905;52.482;9.802;2024-03-22T11:28:05;36.70;;;19.53;;
3779;SDS011;1905;52.482;9.802;2024-03-22T11:30:33;30.40;;;17.13;;
3779;SDS011;1905;52.482;9.802;2024-03-22T11:33:01;35.20;;;18.90;;
3779;SDS011;1905;52.482;9.802;2024-03-22T11:35:27;35.30;;;18.00;;
3779;SDS011;1905;52.482;9.802;2024-03-22T11:37:55;34.93;;;19.30;;
3779;SDS011;1905;52.482;9.802;2024-03-22T11:40:21;29.37;;;16.87;;
3779;SDS011;1905;52.482;9.802;2024-03-22T11:42:51;33.00;;;16.70;;
3779;SDS011;1905;52.482;9.802;2024-03-22T11:45:18;32.77;;;18.40;;
3779;SDS011;1905;52.482;9.802;2024-03-22T11:47:46;30.77;;;16.07;;
3779;SDS011;1905;52.482;9.802;2024-03-22T11:50:13;31.43;;;15.93;;
3779;SDS011;1905;52.482;9.802;2024-03-22T11:52:41;32.60;;;17.57;;
3779;SDS011;1905;52.482;9.802;2024-03-22T11:55:08;36.40;;;16.63;;
3779;SDS011;1905;52.482;9.802;2024-03-22T11:57:36;28.93;;;15.90;;
3779;SDS011;1905;52.482;9.802;2024-03-22T12:00:03;30.20;;;15.70;;
3779;SDS011;1905;52.482;9.802;2024-03-22T12:02:37;32.50;;;16.80;;
3779;SDS011;1905;52.482;9.802;2024-03-22T12:05:04;29.77;;;15.73;;
3779;SDS011;1905;52.482;9.802;2024-03-22T12:07:32;30.00;;;16.20;;
3779;SDS011;1905;52.482;9.802;2024-03-22T12:09:58;31.93;;;16.27;;
3779;SDS011;1905;52.482;9.802;2024-03-22T12:12:25;32.73;;;17.10;;
3779;SDS011;1905;52.482;9.802;2024-03-22T12:14:52;31.20;;;17.03;;
3779;SDS011;1905;52.482;9.802;2024-03-22T12:17:19;29.17;;;15.90;;
3779;SDS011;1905;52.482;9.802;2024-03-22T12:19:45;35.30;;;16.00;;
3779;SDS011;1905;52.482;9.802;2024-03-22T12:22:13;23.83;;;13.47;;
3779;SDS011;1905;52.482;9.802;2024-03-22T12:24:39;29.50;;;15.83;;
3779;SDS011;1905;52.482;9.802;2024-03-22T12:27:07;28.47;;;15.43;;
3779;SDS011;1905;52.482;9.802;2024-03-22T12:29:34;29.80;;;15.43;;
3779;SDS011;1905;52.482;9.802;2024-03-22T12:32:02;29.50;;;14.83;;
3779;SDS011;1905;52.482;9.802;2024-03-22T12:34:30;31.00;;;17.50;;
3779;SDS011;1905;52.482;9.802;2024-03-22T12:36:58;28.77;;;15.17;;
3779;SDS011;1905;52.482;9.802;2024-03-22T12:39:25;28.10;;;15.70;;
3779;SDS011;1905;52.482;9.802;2024-03-22T12:41:52;33.40;;;14.30;;
3779;SDS011;1905;52.482;9.802;2024-03-22T12:44:20;29.73;;;15.43;;
3779;SDS011;1905;52.482;9.802;2024-03-22T12:46:50;33.33;;;15.80;;
3779;SDS011;1905;52.482;9.802;2024-03-22T12:49:17;32.87;;;14.40;;
3779;SDS011;1905;52.482;9.802;2024-03-22T12:51:44;32.57;;;15.90;;
3779;SDS011;1905;52.482;9.802;2024-03-22T12:54:11;30.87;;;17.17;;
3779;SDS011;1905;52.482;9.802;2024-03-22T12:56:41;25.03;;;13.37;;
3779;SDS011;1905;52.482;9.802;2024-03-22T12:59:18;26.93;;;15.33;;
3779;SDS011;1905;52.482;9.802;2024-03-22T13:01:50;28.20;;;16.00;;
3779;SDS011;1905;52.482;9.802;2024-03-22T13:04:17;35.47;;;15.57;;
3779;SDS011;1905;52.482;9.802;2024-03-22T13:06:44;29.73;;;14.93;;
3779;SDS011;1905;52.482;9.802;2024-03-22T13:09:13;26.97;;;15.57;;
3779;SDS011;1905;52.482;9.802;2024-03-22T13:11:41;31.07;;;14.93;;
3779;SDS011;1905;52.482;9.802;2024-03-22T13:14:08;30.53;;;14.97;;
3779;SDS011;1905;52.482;9.802;2024-03-22T13:16:35;28.90;;;13.60;;
3779;SDS011;1905;52.482;9.802;2024-03-22T13:19:02;24.17;;;13.30;;
3779;SDS011;1905;52.482;9.802;2024-03-22T13:21:29;25.13;;;13.40;;
3779;SDS011;1905;52.482;9.802;2024-03-22T13:23:56;32.40;;;15.17;;
3779;SDS011;1905;52.482;9.802;2024-03-22T13:26:23;33.90;;;14.30;;
3779;SDS011;1905;52.482;9.802;2024-03-22T13:28:50;30.23;;;16.33;;
3779;SDS011;1905;52.482;9.802;2024-03-22T13:31:18;40.03;;;18.70;;
3779;SDS011;1905;52.482;9.802;2024-03-22T13:33:44;26.30;;;14.43;;
3779;SDS011;1905;52.482;9.802;2024-03-22T13:36:12;25.87;;;13.80;;
3779;SDS011;1905;52.482;9.802;2024-03-22T13:38:39;24.93;;;13.57;;
3779;SDS011;1905;52.482;9.802;2024-03-22T13:41:06;29.13;;;14.23;;
3779;SDS011;1905;52.482;9.802;2024-03-22T13:43:32;27.83;;;14.33;;
3779;SDS011;1905;52.482;9.802;2024-03-22T13:46:00;23.80;;;12.40;;
3779;SDS011;1905;52.482;9.802;2024-03-22T13:48:26;26.60;;;12.73;;
3779;SDS011;1905;52.482;9.802;2024-03-22T13:50:54;26.80;;;11.30;;
3779;SDS011;1905;52.482;9.802;2024-03-22T13:53:21;21.23;;;10.30;;
3779;SDS011;1905;52.482;9.802;2024-03-22T13:55:49;23.10;;;11.40;;
3779;SDS011;1905;52.482;9.802;2024-03-22T13:58:15;24.20;;;11.20;;
3779;SDS011;1905;52.482;9.802;2024-03-22T14:00:43;22.77;;;11.70;;
3779;SDS011;1905;52.482;9.802;2024-03-22T14:03:09;21.93;;;10.60;;
3779;SDS011;1905;52.482;9.802;2024-03-22T14:05:37;20.73;;;10.60;;
3779;SDS011;1905;52.482;9.802;2024-03-22T14:08:04;21.10;;;10.93;;
3779;SDS011;1905;52.482;9.802;2024-03-22T14:10:31;23.87;;;11.07;;
3779;SDS011;1905;52.482;9.802;2024-03-22T14:12:57;21.27;;;10.50;;
3779;SDS011;1905;52.482;9.802;2024-03-22T14:15:25;20.73;;;9.77;;
3779;SDS011;1905;52.482;9.802;2024-03-22T14:17:53;19.80;;;10.13;;
3779;SDS011;1905;52.482;9.802;2024-03-22T14:20:21;18.40;;;9.03;;
3779;SDS011;1905;52.482;9.802;2024-03-22T14:22:47;21.27;;;9.90;;
3779;SDS011;1905;52.482;9.802;2024-03-22T14:25:14;26.10;;;11.50;;
3779;SDS011;1905;52.482;9.802;2024-03-22T14:27:40;20.20;;;9.50;;
3779;SDS011;1905;52.482;9.802;2024-03-22T14:30:11;20.60;;;9.80;;
3779;SDS011;1905;52.482;9.802;2024-03-22T14:32:38;19.30;;;8.80;;
3779;SDS011;1905;52.482;9.802;2024-03-22T14:35:06;17.83;;;8.77;;
3779;SDS011;1905;52.482;9.802;2024-03-22T14:37:32;18.17;;;8.63;;
3779;SDS011;1905;52.482;9.802;2024-03-22T14:40:00;18.17;;;8.47;;
3779;SDS011;1905;52.482;9.802;2024-03-22T14:42:26;17.43;;;7.10;;
3779;SDS011;1905;52.482;9.802;2024-03-22T14:44:55;16.47;;;8.07;;
3779;SDS011;1905;52.482;9.802;2024-03-22T14:47:21;15.67;;;7.50;;
3779;SDS011;1905;52.482;9.802;2024-03-22T14:49:49;18.47;;;9.70;;
3779;SDS011;1905;52.482;9.802;2024-03-22T14:52:17;15.53;;;8.37;;
3779;SDS011;1905;52.482;9.802;2024-03-22T14:54:44;19.50;;;8.30;;
3779;SDS011;1905;52.482;9.802;2024-03-22T14:57:10;15.70;;;8.20;;
3779;SDS011;1905;52.482;9.802;2024-03-22T14:59:37;13.00;;;6.60;;